Gas Grouper — V7TZ2 — position and weather

sailwx.info

Track history (hours):
 
Tides and Currents Weather Stations Pressure Air Temp Water Temp Dewpoint Dewpoint Depression Visibility Wind Speed Wind Dir Waves Ship Positions

Gas Grouper

Last reported at 2014-Oct-01 13:31 UTC. Time now 2014-Oct-02 00:24 UTC.
Position N 37°38' E 024°29'.

Length 174 m; draft 7 m.

Type: Tanker. MMSI: 538003910.

Date/timePositionNaut miles runAvg speedWind from/ knotsBaromVisibWave heightAir tempDewpointWater temp
2014-Oct-01 13:31N 37°38' E 024°29'1514.0
2014-Oct-01 12:27N 37°26' E 024°18'1414.6
2014-Oct-01 11:30N 37°13' E 024°11'1414.3
2014-Oct-01 10:33N 37°00' E 024°06'1414.3
2014-Oct-01 09:33N 36°47' E 024°01'1313.3
2014-Oct-01 08:33N 36°38' E 023°48'2014.0
2014-Oct-01 07:08N 36°27' E 023°28'42215.9
2014-Sep-30 04:31N 36°18' E 014°44'1616.5
2014-Sep-30 03:33N 36°22' E 014°24'2016.4
2014-Sep-30 02:19N 36°27' E 014°00'40615.7
2014-Sep-29 00:28N 37°16' E 005°36'53616.3
2014-Sep-27 15:33N 35°58' W 005°25'21415.0
2014-Sep-27 01:17N 36°56' W 009°41'1216.4
2014-Sep-27 00:33N 37°07' W 009°44'1716.6
2014-Sep-26 23:33N 37°24' W 009°49'1616.6
2014-Sep-26 22:33N 37°40' W 009°54'1616.4
2014-Sep-26 21:34N 37°55' W 009°58'1716.1
2014-Sep-26 20:32N 38°12' W 010°03'4816.1
2014-Sep-26 17:31N 38°60' W 010°11'  
2014-Sep-24 11:18N 50°31' E 000°11'1115.1
2014-Sep-24 10:34N 50°34' E 000°27'1414.4
2014-Sep-24 09:34N 50°42' E 000°46'3216.1
2014-Sep-24 07:33N 51°03' E 001°26'1818.5
2014-Sep-24 06:34N 51°16' E 001°47'1414.3
2014-Sep-24 05:33N 51°24' E 002°06'3030.2
2014-Sep-24 04:33N 51°23' E 002°54'5 4.7
2014-Sep-24 03:33N 51°24' E 003°01'9 8.9
2014-Sep-24 02:33N 51°25' E 003°16'1313.3
2014-Sep-24 01:33N 51°26' E 003°37'1010.4
2014-Sep-24 00:33N 51°21' E 003°51'8 7.7
2014-Sep-23 23:34N 51°24' E 004°02'7 7.3
2014-Sep-23 22:33N 51°22' E 004°13'3 2.9
2014-Sep-23 21:34N 51°21' E 004°17'0 0.2
2014-Sep-23 20:33N 51°21' E 004°18'1 0.1
2014-Sep-23 03:29N 51°22' E 004°17'0 0.0
2014-Sep-23 02:20N 51°22' E 004°17'0 0.0
2014-Sep-23 01:29N 51°22' E 004°17'0 0.0
2014-Sep-22 20:08N 51°22' E 004°17'0 0.0
2014-Sep-22 14:14N 51°22' E 004°17'1 1.3
2014-Sep-22 13:34N 51°21' E 004°17'0 0.0
2014-Sep-22 12:34N 51°21' E 004°17'3 2.7
2014-Sep-22 11:33N 51°22' E 004°13'7 7.0
2014-Sep-22 10:34N 51°23' E 004°02'8 8.0
2014-Sep-22 09:34N 51°21' E 003°50'1010.2
2014-Sep-22 08:33N 51°26' E 003°36'1312.9
2014-Sep-22 07:33N 51°25' E 003°15'1312.5
2014-Sep-22 06:33N 51°25' E 002°55'9 8.7
2014-Sep-22 05:33N 51°24' E 002°41'2 2.2
2014-Sep-22 04:33N 51°26' E 002°38'0 0.1
2014-Sep-22 03:27N 51°26' E 002°38'0 0.1
2014-Sep-22 02:33N 51°26' E 002°38'0 0.1
2014-Sep-22 01:33N 51°26' E 002°38'0 0.0
2014-Sep-21 23:33N 51°26' E 002°38'0 0.1
2014-Sep-21 22:24N 51°26' E 002°38'0 0.1
2014-Sep-21 21:33N 51°26' E 002°38'0 0.1
2014-Sep-21 20:30N 51°26' E 002°38'0 0.1
2014-Sep-21 19:33N 51°26' E 002°38'0 0.0
2014-Sep-21 18:06N 51°26' E 002°38'0 0.0
2014-Sep-21 16:33N 51°26' E 002°38'0 0.0
2014-Sep-21 15:33N 51°26' E 002°38'0 0.0
2014-Sep-21 14:30N 51°26' E 002°38'  
Track history (hours):
 
Tides and Currents Weather Stations Pressure Air Temp Water Temp Dewpoint Dewpoint Depression Visibility Wind Speed Wind Dir Waves Ship Positions

Gas Grouper

Last reported at 2014-Oct-01 13:31 UTC. Time now 2014-Oct-02 00:24 UTC.
Position N 37°38' E 024°29'.

Length 174 m; draft 7 m.

Type: Tanker. MMSI: 538003910.

Date/timePositionNaut miles runAvg speedWind from/ knotsBaromVisibWave heightAir tempDewpointWater temp
2014-Oct-01 13:31N 37°38' E 024°29'1514.0
2014-Oct-01 12:27N 37°26' E 024°18'1414.6
2014-Oct-01 11:30N 37°13' E 024°11'1414.3
2014-Oct-01 10:33N 37°00' E 024°06'1414.3
2014-Oct-01 09:33N 36°47' E 024°01'1313.3
2014-Oct-01 08:33N 36°38' E 023°48'2014.0
2014-Oct-01 07:08N 36°27' E 023°28'42215.9
2014-Sep-30 04:31N 36°18' E 014°44'1616.5
2014-Sep-30 03:33N 36°22' E 014°24'2016.4
2014-Sep-30 02:19N 36°27' E 014°00'40615.7
2014-Sep-29 00:28N 37°16' E 005°36'53616.3
2014-Sep-27 15:33N 35°58' W 005°25'21415.0
2014-Sep-27 01:17N 36°56' W 009°41'1216.4
2014-Sep-27 00:33N 37°07' W 009°44'1716.6
2014-Sep-26 23:33N 37°24' W 009°49'1616.6
2014-Sep-26 22:33N 37°40' W 009°54'1616.4
2014-Sep-26 21:34N 37°55' W 009°58'1716.1
2014-Sep-26 20:32N 38°12' W 010°03'4816.1
2014-Sep-26 17:31N 38°60' W 010°11'  
2014-Sep-24 11:18N 50°31' E 000°11'1115.1
2014-Sep-24 10:34N 50°34' E 000°27'1414.4
2014-Sep-24 09:34N 50°42' E 000°46'3216.1
2014-Sep-24 07:33N 51°03' E 001°26'1818.5
2014-Sep-24 06:34N 51°16' E 001°47'1414.3
2014-Sep-24 05:33N 51°24' E 002°06'3030.2
2014-Sep-24 04:33N 51°23' E 002°54'5 4.7
2014-Sep-24 03:33N 51°24' E 003°01'9 8.9
2014-Sep-24 02:33N 51°25' E 003°16'1313.3
2014-Sep-24 01:33N 51°26' E 003°37'1010.4
2014-Sep-24 00:33N 51°21' E 003°51'8 7.7
2014-Sep-23 23:34N 51°24' E 004°02'7 7.3
2014-Sep-23 22:33N 51°22' E 004°13'3 2.9
2014-Sep-23 21:34N 51°21' E 004°17'0 0.2
2014-Sep-23 20:33N 51°21' E 004°18'1 0.1
2014-Sep-23 03:29N 51°22' E 004°17'0 0.0
2014-Sep-23 02:20N 51°22' E 004°17'0 0.0
2014-Sep-23 01:29N 51°22' E 004°17'0 0.0
2014-Sep-22 20:08N 51°22' E 004°17'0 0.0
2014-Sep-22 14:14N 51°22' E 004°17'1 1.3
2014-Sep-22 13:34N 51°21' E 004°17'0 0.0
2014-Sep-22 12:34N 51°21' E 004°17'3 2.7
2014-Sep-22 11:33N 51°22' E 004°13'7 7.0
2014-Sep-22 10:34N 51°23' E 004°02'8 8.0
2014-Sep-22 09:34N 51°21' E 003°50'1010.2
2014-Sep-22 08:33N 51°26' E 003°36'1312.9
2014-Sep-22 07:33N 51°25' E 003°15'1312.5
2014-Sep-22 06:33N 51°25' E 002°55'9 8.7
2014-Sep-22 05:33N 51°24' E 002°41'2 2.2
2014-Sep-22 04:33N 51°26' E 002°38'0 0.1
2014-Sep-22 03:27N 51°26' E 002°38'0 0.1
2014-Sep-22 02:33N 51°26' E 002°38'0 0.1
2014-Sep-22 01:33N 51°26' E 002°38'0 0.0
2014-Sep-21 23:33N 51°26' E 002°38'0 0.1
2014-Sep-21 22:24N 51°26' E 002°38'0 0.1
2014-Sep-21 21:33N 51°26' E 002°38'0 0.1
2014-Sep-21 20:30N 51°26' E 002°38'0 0.1
2014-Sep-21 19:33N 51°26' E 002°38'0 0.0
2014-Sep-21 18:06N 51°26' E 002°38'0 0.0
2014-Sep-21 16:33N 51°26' E 002°38'0 0.0
2014-Sep-21 15:33N 51°26' E 002°38'0 0.0
2014-Sep-21 14:30N 51°26' E 002°38'  

Dump ship's entire track history